createdAt,value
2018-01-17T00:00:55.074Z,-0.40
2018-01-17T00:03:21.300Z,-0.50
2018-01-17T00:05:47.544Z,-0.40
2018-01-17T00:08:14.565Z,-0.30
2018-01-17T00:10:40.812Z,-0.30
2018-01-17T00:13:07.037Z,-0.20
2018-01-17T00:15:33.983Z,-0.10
2018-01-17T00:18:00.159Z,-0.10
2018-01-17T00:20:26.603Z,0.00
2018-01-17T00:22:52.783Z,-0.10
2018-01-17T00:25:19.016Z,-0.10
2018-01-17T00:27:45.963Z,-0.10
2018-01-17T00:30:12.914Z,-0.20
2018-01-17T00:32:39.831Z,-0.20
2018-01-17T00:35:06.035Z,-0.20
2018-01-17T00:37:32.235Z,-0.10
2018-01-17T00:39:58.443Z,-0.10
2018-01-17T00:42:25.364Z,0.20
2018-01-17T00:44:51.564Z,0.10
2018-01-17T00:47:17.775Z,0.20
2018-01-17T00:49:43.979Z,0.20
2018-01-17T00:52:10.898Z,0.20
2018-01-17T00:54:37.844Z,0.10
2018-01-17T00:57:04.029Z,0.10
2018-01-17T00:59:30.239Z,0.10
2018-01-17T01:01:56.423Z,0.10
2018-01-17T01:04:22.691Z,0.10
2018-01-17T01:06:49.643Z,0.10
2018-01-17T01:09:16.592Z,0.00
2018-01-17T01:11:42.763Z,0.00
2018-01-17T01:14:08.970Z,0.00
2018-01-17T01:16:35.151Z,0.00
2018-01-17T01:19:02.263Z,0.00
2018-01-17T01:21:28.439Z,-0.10
2018-01-17T01:23:55.363Z,0.00
2018-01-17T01:26:23.075Z,0.00
2018-01-17T01:28:49.260Z,-0.10
2018-01-17T01:31:15.505Z,0.00
2018-01-17T01:33:42.468Z,-0.10
2018-01-17T01:36:08.769Z,-0.10
2018-01-17T01:38:35.757Z,-0.10
2018-01-17T01:41:01.970Z,-0.10
2018-01-17T01:43:28.189Z,0.00
2018-01-17T01:45:55.173Z,0.00
2018-01-17T01:48:21.397Z,0.00
2018-01-17T01:50:47.641Z,0.00
2018-01-17T01:53:13.861Z,0.00
2018-01-17T01:55:40.108Z,0.00
2018-01-17T01:58:06.329Z,-0.10
2018-01-17T02:00:32.597Z,-0.10
2018-01-17T02:02:58.824Z,-0.10
2018-01-17T02:05:25.067Z,-0.20
2018-01-17T02:07:52.024Z,-0.20
2018-01-17T02:10:19.004Z,-0.30
2018-01-17T02:12:45.246Z,-0.30
2018-01-17T02:15:11.690Z,-0.30
2018-01-17T02:17:39.149Z,-0.30
2018-01-17T02:20:06.772Z,-0.30
2018-01-17T02:22:33.370Z,-0.30
2018-01-17T02:24:59.661Z,-0.30
2018-01-17T02:27:25.839Z,-0.20
2018-01-17T02:29:52.843Z,-0.20
2018-01-17T02:32:19.027Z,-0.20
2018-01-17T02:34:45.208Z,-0.20
2018-01-17T02:37:11.406Z,-0.20
2018-01-17T02:39:50.072Z,-0.20
2018-01-17T02:42:16.275Z,-0.10
2018-01-17T02:44:42.451Z,0.00
2018-01-17T02:47:09.387Z,0.00
2018-01-17T02:49:36.367Z,0.00
2018-01-17T02:52:02.608Z,-0.10
2018-01-17T02:54:28.788Z,-0.10
2018-01-17T02:56:54.991Z,-0.10
2018-01-17T02:59:21.179Z,-0.20
2018-01-17T03:01:47.544Z,-0.20
2018-01-17T03:04:13.751Z,-0.20
2018-01-17T03:06:39.933Z,-0.20
2018-01-17T03:09:06.884Z,-0.20
2018-01-17T03:11:33.806Z,-0.10
2018-01-17T03:14:07.003Z,-0.10
2018-01-17T03:16:33.421Z,-0.10
2018-01-17T03:18:59.603Z,-0.10
2018-01-17T03:21:26.519Z,0.00
2018-01-17T03:23:52.726Z,0.00
2018-01-17T03:26:18.936Z,0.00
2018-01-17T03:28:45.131Z,0.10
2018-01-17T03:31:12.059Z,0.00
2018-01-17T03:33:39.012Z,0.00
2018-01-17T03:36:05.935Z,-0.10
2018-01-17T03:38:32.480Z,-0.10
2018-01-17T03:40:58.655Z,0.00
2018-01-17T03:43:24.859Z,0.00
2018-01-17T03:45:51.780Z,0.00
2018-01-17T03:48:18.388Z,0.00
2018-01-17T03:50:44.567Z,0.00
2018-01-17T03:53:10.802Z,0.10
2018-01-17T03:55:37.742Z,0.20
2018-01-17T03:58:04.659Z,0.20
2018-01-17T04:00:30.871Z,0.20
2018-01-17T04:02:57.055Z,0.20
2018-01-17T04:05:23.275Z,0.30
2018-01-17T04:07:50.191Z,0.20
2018-01-17T04:10:16.401Z,0.20
2018-01-17T04:12:42.570Z,0.20
2018-01-17T04:15:09.536Z,0.20
2018-01-17T04:17:35.714Z,0.10
2018-01-17T04:20:01.936Z,0.10
2018-01-17T04:22:28.119Z,0.20
2018-01-17T04:24:54.346Z,0.20
2018-01-17T04:27:20.522Z,0.20
2018-01-17T04:29:46.724Z,0.20
2018-01-17T04:32:12.899Z,0.20
2018-01-17T04:34:39.098Z,0.20
2018-01-17T04:37:05.275Z,0.20
2018-01-17T04:39:32.192Z,0.40
2018-01-17T04:41:58.406Z,0.40
2018-01-17T04:44:24.616Z,0.40
2018-01-17T04:46:50.828Z,0.50
2018-01-17T04:49:17.007Z,0.50
2018-01-17T04:51:43.208Z,0.50
2018-01-17T04:54:09.382Z,0.60
2018-01-17T04:56:36.327Z,0.50
2018-01-17T04:59:03.248Z,0.50
2018-01-17T05:01:29.459Z,0.40
2018-01-17T05:03:55.635Z,0.50
2018-01-17T05:06:22.587Z,0.40
2018-01-17T05:08:49.503Z,0.40
2018-01-17T05:11:15.708Z,0.40
2018-01-17T05:13:41.878Z,0.30
2018-01-17T05:16:08.836Z,0.30
2018-01-17T05:18:35.764Z,0.20
2018-01-17T05:21:01.968Z,0.20
2018-01-17T05:23:28.147Z,0.20
2018-01-17T05:25:54.375Z,0.20
2018-01-17T05:28:20.558Z,0.20
2018-01-17T05:30:46.827Z,0.20
2018-01-17T05:33:13.055Z,0.20
2018-01-17T05:35:39.962Z,0.10
2018-01-17T05:38:06.176Z,0.10
2018-01-17T05:40:32.360Z,0.20
2018-01-17T05:42:58.566Z,0.20
2018-01-17T05:45:25.198Z,0.20
2018-01-17T05:47:51.403Z,0.20
2018-01-17T05:50:17.579Z,0.20
2018-01-17T05:52:44.519Z,0.20
2018-01-17T05:55:11.434Z,0.20
2018-01-17T05:57:37.639Z,0.30
2018-01-17T06:00:03.858Z,0.30
2018-01-17T06:02:30.083Z,0.30
2018-01-17T06:04:56.262Z,0.30
2018-01-17T06:07:22.467Z,0.30
2018-01-17T06:09:48.642Z,0.40
2018-01-17T06:12:15.679Z,0.40
2018-01-17T06:14:42.603Z,0.30
2018-01-17T06:17:08.895Z,0.30
2018-01-17T06:19:35.098Z,0.20
2018-01-17T06:22:02.019Z,0.10
2018-01-17T06:24:28.252Z,0.10
2018-01-17T06:26:55.179Z,0.00
2018-01-17T06:29:21.387Z,0.00
2018-01-17T06:31:47.563Z,0.00
2018-01-17T06:34:14.507Z,-0.10
2018-01-17T06:36:41.427Z,-0.10
2018-01-17T06:39:07.631Z,-0.10
2018-01-17T06:41:33.810Z,-0.10
2018-01-17T06:44:00.772Z,-0.10
2018-01-17T06:46:26.955Z,-0.10
2018-01-17T06:48:53.144Z,-0.10
2018-01-17T06:51:19.351Z,-0.10
2018-01-17T06:53:46.275Z,-0.10
2018-01-17T06:56:12.499Z,-0.10
2018-01-17T06:58:38.678Z,-0.10
2018-01-17T07:01:04.879Z,-0.10
2018-01-17T07:03:31.799Z,-0.20
2018-01-17T07:05:58.011Z,-0.20
2018-01-17T07:08:24.186Z,-0.20
2018-01-17T07:10:51.127Z,-0.10
2018-01-17T07:13:18.062Z,-0.10
2018-01-17T07:15:45.007Z,-0.10
2018-01-17T07:18:11.948Z,-0.10
2018-01-17T07:20:38.414Z,-0.10
2018-01-17T07:23:04.624Z,-0.10
2018-01-17T07:25:31.595Z,0.00
2018-01-17T07:27:57.779Z,0.00
2018-01-17T07:30:23.983Z,0.00
2018-01-17T07:32:50.162Z,-0.10
2018-01-17T07:35:17.099Z,-0.10
2018-01-17T07:37:44.016Z,-0.10
2018-01-17T07:40:10.219Z,-0.10
2018-01-17T07:42:36.405Z,0.00
2018-01-17T07:45:03.356Z,0.00
2018-01-17T07:47:30.531Z,0.00
2018-01-17T07:49:56.735Z,0.00
2018-01-17T07:52:23.650Z,0.00
2018-01-17T07:54:49.875Z,0.00
2018-01-17T07:57:16.079Z,0.00
2018-01-17T07:59:42.495Z,0.10
2018-01-17T08:02:08.699Z,0.10
2018-01-17T08:04:35.631Z,0.20
2018-01-17T08:07:02.576Z,0.20
2018-01-17T08:09:29.492Z,0.30
2018-01-17T08:11:55.699Z,0.20
2018-01-17T08:14:21.875Z,0.30
2018-01-17T08:16:48.103Z,0.30
2018-01-17T08:19:14.284Z,0.30
2018-01-17T08:21:40.463Z,0.30
2018-01-17T08:24:07.412Z,0.30
2018-01-17T08:26:34.355Z,0.40
2018-01-17T08:29:01.307Z,0.50
2018-01-17T08:31:28.225Z,0.60
2018-01-17T08:33:54.431Z,0.60
2018-01-17T08:36:20.603Z,0.90
2018-01-17T08:38:47.555Z,0.80
2018-01-17T08:41:14.479Z,0.90
2018-01-17T08:43:40.683Z,0.90
2018-01-17T08:46:06.875Z,0.90
2018-01-17T08:48:33.075Z,0.80
2018-01-17T08:50:59.275Z,0.90
2018-01-17T08:53:25.492Z,0.80
2018-01-17T08:55:51.676Z,0.70
2018-01-17T08:58:18.623Z,0.70
2018-01-17T09:00:45.542Z,0.90
2018-01-17T09:03:12.083Z,0.90
2018-01-17T09:05:38.283Z,1.10
2018-01-17T09:08:04.459Z,1.40
2018-01-17T09:10:31.431Z,1.90
2018-01-17T09:12:57.629Z,1.90
2018-01-17T09:15:24.579Z,1.80
2018-01-17T09:17:51.491Z,1.50
2018-01-17T09:20:17.702Z,1.50
2018-01-17T09:22:43.887Z,1.40
2018-01-17T09:25:10.863Z,1.20
2018-01-17T09:27:37.044Z,1.20
2018-01-17T09:30:03.268Z,1.00
2018-01-17T09:32:30.191Z,0.80
2018-01-17T09:34:56.414Z,0.80
2018-01-17T09:37:22.604Z,0.70
2018-01-17T09:39:48.787Z,0.60
2018-01-17T09:42:14.991Z,0.60
2018-01-17T09:44:41.231Z,0.60
2018-01-17T09:47:07.434Z,0.60
2018-01-17T09:49:33.615Z,0.60
2018-01-17T09:51:59.820Z,0.60
2018-01-17T09:54:26.011Z,0.60
2018-01-17T09:56:52.209Z,0.60
2018-01-17T09:59:19.127Z,0.60
2018-01-17T10:01:45.331Z,0.60
2018-01-17T10:04:11.508Z,0.60
2018-01-17T10:06:38.463Z,0.80
2018-01-17T10:09:05.383Z,0.80
2018-01-17T10:11:32.400Z,0.90
2018-01-17T10:13:58.579Z,0.90
2018-01-17T10:16:25.518Z,0.90
2018-01-17T10:18:51.755Z,0.90
2018-01-17T10:21:18.727Z,0.80
2018-01-17T10:23:44.910Z,0.80
2018-01-17T10:26:11.142Z,0.70
2018-01-17T10:28:37.345Z,0.70
2018-01-17T10:31:03.528Z,0.70
2018-01-17T10:33:29.737Z,0.80
2018-01-17T10:35:56.659Z,1.00
2018-01-17T10:38:22.863Z,1.00
2018-01-17T10:40:49.043Z,1.00
2018-01-17T10:43:16.037Z,0.90
2018-01-17T10:45:42.214Z,1.00
2018-01-17T10:48:09.159Z,1.00
2018-01-17T10:50:35.336Z,0.90
2018-01-17T10:53:01.543Z,0.90
2018-01-17T10:55:27.723Z,0.90
2018-01-17T10:57:54.703Z,0.90
2018-01-17T11:00:20.936Z,0.90
2018-01-17T11:02:47.876Z,0.90
2018-01-17T11:05:14.803Z,0.90
2018-01-17T11:07:40.987Z,0.90
2018-01-17T11:10:07.182Z,0.90
2018-01-17T11:12:34.106Z,0.90
2018-01-17T11:15:01.103Z,0.90
2018-01-17T11:17:27.278Z,0.90
2018-01-17T11:19:53.479Z,0.90
2018-01-17T11:22:19.720Z,0.80
2018-01-17T11:24:45.951Z,0.80
2018-01-17T11:27:12.195Z,0.80
2018-01-17T11:29:38.400Z,0.80
2018-01-17T11:32:05.069Z,0.80
2018-01-17T11:34:31.551Z,0.90
2018-01-17T11:36:57.731Z,0.90
2018-01-17T11:39:24.684Z,0.90
2018-01-17T11:41:51.608Z,1.00
2018-01-17T11:44:17.819Z,1.00
2018-01-17T11:46:43.990Z,1.10
2018-01-17T11:49:10.999Z,1.10
2018-01-17T11:51:37.179Z,1.10
2018-01-17T11:54:03.415Z,1.10
2018-01-17T11:56:29.596Z,1.10
2018-01-17T11:58:55.780Z,1.00
2018-01-17T12:01:21.983Z,1.00
2018-01-17T12:03:48.967Z,1.10
2018-01-17T12:06:15.172Z,1.00
2018-01-17T12:08:41.354Z,1.10
2018-01-17T12:11:07.559Z,1.10
2018-01-17T12:13:33.739Z,1.10
2018-01-17T12:16:00.683Z,1.00
2018-01-17T12:18:27.671Z,1.00
2018-01-17T12:20:54.019Z,1.00
2018-01-17T12:23:20.224Z,1.00
2018-01-17T12:25:46.403Z,0.90
2018-01-17T12:28:12.603Z,0.90
2018-01-17T12:30:38.803Z,0.80
2018-01-17T12:33:04.988Z,0.80
2018-01-17T12:35:31.199Z,0.80
2018-01-17T12:37:57.378Z,0.70
2018-01-17T12:40:23.588Z,0.70
2018-01-17T12:42:50.535Z,0.70
2018-01-17T12:45:17.451Z,0.70
2018-01-17T12:47:43.669Z,0.70
2018-01-17T12:50:09.847Z,0.70
2018-01-17T12:52:36.795Z,0.70
2018-01-17T12:55:03.732Z,0.70
2018-01-17T12:57:30.675Z,0.80
2018-01-17T12:59:57.595Z,0.80
2018-01-17T13:02:23.796Z,0.70
2018-01-17T13:04:49.975Z,0.80
2018-01-17T13:07:16.927Z,0.80
2018-01-17T13:09:43.847Z,0.80
2018-01-17T13:12:10.083Z,0.80
2018-01-17T13:14:36.279Z,0.90
2018-01-17T13:17:02.703Z,1.00
2018-01-17T13:19:28.966Z,1.10
2018-01-17T13:21:55.143Z,1.10
2018-01-17T13:24:21.395Z,1.10
2018-01-17T13:26:47.574Z,1.10
2018-01-17T13:29:14.527Z,1.30
2018-01-17T13:31:41.442Z,1.40
2018-01-17T13:34:07.707Z,1.30
2018-01-17T13:36:33.911Z,1.40
2018-01-17T13:39:00.141Z,1.60
2018-01-17T13:41:26.315Z,2.80
2018-01-17T13:43:52.499Z,3.30
2018-01-17T13:46:18.711Z,3.30
2018-01-17T13:48:44.895Z,3.20
2018-01-17T13:51:11.107Z,3.30
2018-01-17T13:53:38.023Z,2.80
2018-01-17T13:56:04.255Z,2.70
2018-01-17T13:58:30.437Z,2.30
2018-01-17T14:00:56.638Z,1.90
2018-01-17T14:03:23.564Z,1.40
2018-01-17T14:05:49.771Z,1.40
2018-01-17T14:08:15.966Z,1.30
2018-01-17T14:10:42.179Z,1.30
2018-01-17T14:13:08.631Z,1.20
2018-01-17T14:15:34.814Z,1.20
2018-01-17T14:18:01.019Z,1.10
2018-01-17T14:20:27.208Z,1.00
2018-01-17T14:22:53.411Z,1.00
2018-01-17T14:25:20.355Z,0.90
2018-01-17T14:27:48.007Z,0.90
2018-01-17T14:30:14.183Z,0.90
2018-01-17T14:32:40.390Z,0.90
2018-01-17T14:35:06.566Z,0.90
2018-01-17T14:37:32.930Z,0.90
2018-01-17T14:39:59.915Z,0.90
2018-01-17T14:42:26.095Z,0.90
2018-01-17T14:44:52.299Z,0.90
2018-01-17T14:47:18.475Z,0.90
2018-01-17T14:49:45.419Z,0.90
2018-01-17T14:52:12.339Z,0.90
2018-01-17T14:54:38.544Z,0.80
2018-01-17T14:57:04.720Z,0.90
2018-01-17T14:59:31.699Z,0.80
2018-01-17T15:01:57.875Z,0.80
2018-01-17T15:04:24.480Z,0.80
2018-01-17T15:06:50.691Z,0.70
2018-01-17T15:09:16.873Z,0.70
2018-01-17T15:11:43.079Z,0.70
2018-01-17T15:14:09.258Z,0.60
2018-01-17T15:16:35.484Z,0.60
2018-01-17T15:19:01.679Z,0.60
2018-01-17T15:21:27.927Z,0.60
2018-01-17T15:23:54.886Z,0.70
2018-01-17T15:26:21.927Z,0.70
2018-01-17T15:28:48.867Z,0.80
2018-01-17T15:31:15.823Z,0.80
2018-01-17T15:33:42.747Z,0.70
2018-01-17T15:36:08.931Z,0.80
2018-01-17T15:38:35.132Z,0.70
2018-01-17T15:41:08.171Z,0.80
2018-01-17T15:43:34.375Z,0.80
2018-01-17T15:46:00.554Z,0.80
2018-01-17T15:48:27.503Z,0.70
2018-01-17T15:50:54.423Z,0.70
2018-01-17T15:53:20.663Z,0.70
2018-01-17T15:55:46.874Z,0.60
2018-01-17T15:58:13.055Z,0.50
2018-01-17T16:00:39.259Z,0.40
2018-01-17T16:03:06.219Z,0.30
2018-01-17T16:05:33.155Z,0.30
2018-01-17T16:08:00.079Z,0.20
2018-01-17T16:10:26.283Z,0.20
2018-01-17T16:12:52.455Z,0.20
2018-01-17T16:15:19.399Z,0.30
2018-01-17T16:17:46.324Z,0.40
2018-01-17T16:20:12.529Z,0.40
2018-01-17T16:22:38.703Z,0.40
2018-01-17T16:25:05.676Z,0.40
2018-01-17T16:27:31.850Z,0.40
2018-01-17T16:29:58.199Z,0.40
2018-01-17T16:32:24.683Z,0.40
2018-01-17T16:34:50.859Z,0.40
2018-01-17T16:37:17.079Z,0.40
2018-01-17T16:39:44.054Z,0.30
2018-01-17T16:42:10.241Z,0.30
2018-01-17T16:44:37.190Z,0.10
2018-01-17T16:47:03.400Z,0.10
2018-01-17T16:49:29.579Z,0.00
2018-01-17T16:51:56.598Z,-0.10
2018-01-17T16:54:22.774Z,-0.10
2018-01-17T16:56:48.952Z,-0.10
2018-01-17T16:59:15.156Z,-0.10
2018-01-17T17:01:41.585Z,-0.20
2018-01-17T17:04:07.791Z,-0.10
2018-01-17T17:06:36.896Z,-0.20
2018-01-17T17:09:03.182Z,-0.10
2018-01-17T17:11:29.359Z,-0.10
2018-01-17T17:13:55.543Z,-0.10
2018-01-17T17:16:21.744Z,-0.10
2018-01-17T17:18:47.933Z,-0.20
2018-01-17T17:21:14.140Z,-0.20
2018-01-17T17:23:41.087Z,-0.20
2018-01-17T17:26:08.063Z,-0.20
2018-01-17T17:28:34.235Z,-0.20
2018-01-17T17:31:00.415Z,-0.20
2018-01-17T17:33:26.620Z,-0.20
2018-01-17T17:35:53.547Z,-0.20
2018-01-17T17:38:19.756Z,-0.20
2018-01-17T17:40:45.943Z,-0.20
2018-01-17T17:43:12.143Z,-0.30
2018-01-17T17:45:39.066Z,-0.20
2018-01-17T17:48:05.267Z,-0.20
2018-01-17T17:50:31.443Z,0.00
2018-01-17T17:52:57.678Z,0.10
2018-01-17T17:55:24.623Z,0.20
2018-01-17T17:57:51.543Z,0.10
2018-01-17T18:00:17.767Z,0.10
2018-01-17T18:02:43.992Z,0.10
2018-01-17T18:05:10.194Z,0.10
2018-01-17T18:07:36.375Z,0.10
2018-01-17T18:10:02.603Z,0.10
2018-01-17T18:12:28.827Z,0.00
2018-01-17T18:14:55.019Z,0.00
2018-01-17T18:17:21.207Z,0.00
2018-01-17T18:19:48.154Z,0.10
2018-01-17T18:22:15.076Z,0.00
2018-01-17T18:24:41.283Z,0.00
2018-01-17T18:27:07.496Z,0.00
2018-01-17T18:29:33.686Z,0.00
2018-01-17T18:32:00.634Z,0.00
2018-01-17T18:34:27.615Z,0.00
2018-01-17T18:36:53.834Z,0.00
2018-01-17T18:39:20.052Z,0.00
2018-01-17T18:41:46.284Z,0.00
2018-01-17T18:44:12.475Z,0.00
2018-01-17T18:46:38.672Z,-0.10
2018-01-17T18:49:04.871Z,0.00
2018-01-17T18:51:31.058Z,0.10
2018-01-17T18:53:57.263Z,0.10
2018-01-17T18:56:23.447Z,0.10
2018-01-17T18:58:49.721Z,0.10
2018-01-17T19:01:15.915Z,0.00
2018-01-17T19:03:42.119Z,0.00
2018-01-17T19:06:09.099Z,0.00
2018-01-17T19:08:38.320Z,0.00
2018-01-17T19:11:04.486Z,0.10
2018-01-17T19:13:31.431Z,0.20
2018-01-17T19:15:58.375Z,0.20
2018-01-17T19:18:24.563Z,0.20
2018-01-17T19:20:50.761Z,0.20
2018-01-17T19:23:16.946Z,0.20
2018-01-17T19:25:43.271Z,0.20
2018-01-17T19:28:09.465Z,0.20
2018-01-17T19:30:35.719Z,0.10
2018-01-17T19:33:01.899Z,0.00
2018-01-17T19:35:28.120Z,-0.10
2018-01-17T19:37:55.063Z,-0.10
2018-01-17T19:40:22.021Z,-0.10
2018-01-17T19:42:48.231Z,-0.10
2018-01-17T19:45:15.217Z,-0.20
2018-01-17T19:47:41.473Z,-0.20
2018-01-17T19:50:08.403Z,-0.30
2018-01-17T19:52:35.467Z,-0.30
2018-01-17T19:55:01.695Z,-0.30
2018-01-17T19:57:27.941Z,-0.20
2018-01-17T19:59:54.183Z,-0.10
2018-01-17T20:02:21.133Z,-0.10
2018-01-17T20:04:48.060Z,-0.10
2018-01-17T20:07:14.313Z,-0.10
2018-01-17T20:09:41.251Z,0.00
2018-01-17T20:12:07.479Z,0.00
2018-01-17T20:14:33.659Z,-0.10
2018-01-17T20:16:59.918Z,0.00
2018-01-17T20:19:26.127Z,-0.10
2018-01-17T20:21:52.426Z,-0.10
2018-01-17T20:24:18.775Z,0.00
2018-01-17T20:26:45.207Z,-0.10
2018-01-17T20:29:11.473Z,-0.10
2018-01-17T20:31:37.658Z,-0.10
2018-01-17T20:34:03.859Z,-0.10
2018-01-17T20:36:31.189Z,-0.20
2018-01-17T20:38:57.452Z,-0.20
2018-01-17T20:41:24.413Z,-0.10
2018-01-17T20:43:50.676Z,-0.10
2018-01-17T20:46:16.851Z,-0.20
2018-01-17T20:48:43.843Z,-0.20
2018-01-17T20:51:10.099Z,-0.20
2018-01-17T20:53:36.321Z,-0.30
2018-01-17T20:56:02.539Z,-0.30
2018-01-17T20:58:28.766Z,-0.20
2018-01-17T21:00:55.084Z,-0.20
2018-01-17T21:03:21.331Z,-0.10
2018-01-17T21:05:47.578Z,0.00
2018-01-17T21:08:14.690Z,0.10
2018-01-17T21:10:40.866Z,0.10
2018-01-17T21:13:07.079Z,0.20
2018-01-17T21:15:33.263Z,0.20
2018-01-17T21:17:59.473Z,0.30
2018-01-17T21:20:26.441Z,0.40
2018-01-17T21:22:52.690Z,0.40
2018-01-17T21:25:18.896Z,0.40
2018-01-17T21:27:45.145Z,0.40
2018-01-17T21:30:11.328Z,0.50
2018-01-17T21:32:38.267Z,0.60
2018-01-17T21:35:05.191Z,0.60
2018-01-17T21:37:31.792Z,0.60
2018-01-17T21:39:58.121Z,0.50
2018-01-17T21:42:30.495Z,0.50
2018-01-17T21:45:03.228Z,0.40
2018-01-17T21:47:29.450Z,0.40
2018-01-17T21:49:55.693Z,0.30
2018-01-17T21:52:22.647Z,0.30
2018-01-17T21:54:49.638Z,0.30
2018-01-17T21:57:15.865Z,0.20
2018-01-17T21:59:42.072Z,0.20
2018-01-17T22:02:08.305Z,0.10
2018-01-17T22:04:34.511Z,0.20
2018-01-17T22:07:01.473Z,0.30
2018-01-17T22:09:27.716Z,0.30
2018-01-17T22:11:53.894Z,0.40
2018-01-17T22:14:20.094Z,0.50
2018-01-17T22:16:46.267Z,0.50
2018-01-17T22:19:13.210Z,0.70
2018-01-17T22:21:40.177Z,0.70
2018-01-17T22:24:06.439Z,0.70
2018-01-17T22:26:33.411Z,0.70
2018-01-17T22:28:59.586Z,0.70
2018-01-17T22:31:25.800Z,0.70
2018-01-17T22:33:52.726Z,0.80
2018-01-17T22:36:18.942Z,0.80
2018-01-17T22:38:45.128Z,0.80
2018-01-17T22:41:11.356Z,0.80
2018-01-17T22:43:37.535Z,0.70
2018-01-17T22:46:03.714Z,0.60
2018-01-17T22:48:29.918Z,0.50
2018-01-17T22:50:56.863Z,0.40
2018-01-17T22:53:23.784Z,0.40
2018-01-17T22:55:49.967Z,0.30
2018-01-17T22:58:16.171Z,0.40
2018-01-17T23:00:42.362Z,0.40
2018-01-17T23:03:08.568Z,0.40
2018-01-17T23:05:34.779Z,0.40
2018-01-17T23:08:00.983Z,0.30
2018-01-17T23:10:27.903Z,0.20
2018-01-17T23:12:54.107Z,0.20
2018-01-17T23:15:20.287Z,0.30
2018-01-17T23:17:47.231Z,0.30
2018-01-17T23:20:14.158Z,0.30
2018-01-17T23:22:40.339Z,0.30
2018-01-17T23:25:06.579Z,0.40
2018-01-17T23:27:32.754Z,0.40
2018-01-17T23:29:59.699Z,0.40
2018-01-17T23:32:26.624Z,0.40
2018-01-17T23:34:52.831Z,0.40
2018-01-17T23:37:19.011Z,0.40
2018-01-17T23:39:45.955Z,0.50
2018-01-17T23:42:12.872Z,0.50
2018-01-17T23:44:39.076Z,0.50
2018-01-17T23:47:05.255Z,0.50
2018-01-17T23:49:32.358Z,0.40
2018-01-17T23:51:58.536Z,0.40
2018-01-17T23:54:24.725Z,0.50
2018-01-17T23:56:50.931Z,0.50
2018-01-17T23:59:17.135Z,0.50
